logo
Rechercher aéroport 
image banner adimage banner adimage banner ad
image banner ad

YSMI - Smithton

Situé à Smithton, Australia

ICAO - YSMI, IATA - SIO

Données fournies par Airmate  

Information générale

Coordonnées: S40°50'10" E145°5'0"
Élévation : 31 feet MSL.
Variation magnétique : 13° East
Voir autres Aéroports à Tasmania

Données opérationnelles

Special qualification required
Heure actuelle UTC:
Heure actuelle locale:
Météo à : - ( 0 km )
METAR: PASK 220925Z AUTO 05007KT 1 1/2SM BR BKN001 OVC055 03/02 A2974 RMK AO2
Voir NOTAMs / SUP AIP / TFR affectant cet aéroport [VIEW]
Fréquences de communication: [VIEW]

Pistes:

Identifiant RWYQFULongueur (ft)Largeur (ft)SurfaceLDA (ft)
10113°203498GVL
28293°203498GVL
0669°524659ASP
24249°524659ASP

Coordonnées de l'aéroport

Adresse: Smithton Australia

Vue satellite de YSMI